createdAt,value
2018-07-31T22:12:01.620Z,22.69
2018-07-31T22:14:33.889Z,21.69
2018-07-31T22:17:05.749Z,21.34
2018-07-31T22:19:37.629Z,21.11
2018-07-31T22:22:10.015Z,21.23
2018-07-31T22:24:41.796Z,20.75
2018-07-31T22:27:14.021Z,20.88
2018-07-31T22:29:45.712Z,20.68
2018-07-31T22:32:16.527Z,20.86
2018-07-31T22:34:48.538Z,21.03
2018-07-31T22:41:45.626Z,21.04
2018-07-31T22:44:17.673Z,21.09
2018-07-31T22:46:48.579Z,21.33
2018-07-31T22:49:20.656Z,20.84
2018-07-31T22:51:52.629Z,20.73
2018-07-31T22:54:24.675Z,20.76
2018-07-31T22:56:55.582Z,20.73
2018-07-31T22:59:27.630Z,20.78
2018-07-31T23:01:59.677Z,20.65
2018-07-31T23:04:31.619Z,20.77
2018-07-31T23:07:03.607Z,20.76
2018-07-31T23:09:35.637Z,20.31
2018-07-31T23:12:07.597Z,20.47
2018-07-31T23:14:40.008Z,20.81
2018-07-31T23:17:11.676Z,20.89
2018-07-31T23:19:43.583Z,20.96
2018-07-31T23:22:16.751Z,20.97
2018-07-31T23:24:47.490Z,20.94
2018-07-31T23:27:19.381Z,20.75
2018-07-31T23:29:57.782Z,20.68
2018-07-31T23:32:30.019Z,20.73
2018-07-31T23:35:01.682Z,20.74
2018-07-31T23:37:33.529Z,20.57
2018-07-31T23:40:05.731Z,20.41
2018-07-31T23:42:38.015Z,20.44
2018-07-31T23:45:09.626Z,20.17
2018-07-31T23:47:41.616Z,20.26
2018-07-31T23:50:13.637Z,20.12
2018-07-31T23:52:46.015Z,19.95
2018-07-31T23:55:17.892Z,19.88
2018-07-31T23:57:50.017Z,19.81
